sensor_id;sensor_type;location;lat;lon;timestamp;P1;durP1;ratioP1;P2;durP2;ratioP2
22665;SDS011;11499;49.486;11.104;2023-05-17T00:01:40;4.67;;;1.70;;
22665;SDS011;11499;49.486;11.104;2023-05-17T00:04:05;8.87;;;2.63;;
22665;SDS011;11499;49.486;11.104;2023-05-17T00:06:31;3.20;;;1.70;;
22665;SDS011;11499;49.486;11.104;2023-05-17T00:08:58;3.90;;;1.80;;
22665;SDS011;11499;49.486;11.104;2023-05-17T00:11:24;4.70;;;1.90;;
22665;SDS011;11499;49.486;11.104;2023-05-17T00:13:50;4.93;;;1.80;;
22665;SDS011;11499;49.486;11.104;2023-05-17T00:16:15;4.00;;;1.73;;
22665;SDS011;11499;49.486;11.104;2023-05-17T00:21:24;3.63;;;1.77;;
22665;SDS011;11499;49.486;11.104;2023-05-17T00:23:49;3.83;;;1.80;;
22665;SDS011;11499;49.486;11.104;2023-05-17T00:26:15;4.03;;;1.70;;
22665;SDS011;11499;49.486;11.104;2023-05-17T00:28:40;3.70;;;1.80;;
22665;SDS011;11499;49.486;11.104;2023-05-17T00:31:06;6.70;;;1.70;;
22665;SDS011;11499;49.486;11.104;2023-05-17T00:33:31;6.77;;;1.70;;
22665;SDS011;11499;49.486;11.104;2023-05-17T00:35:57;3.20;;;1.60;;
22665;SDS011;11499;49.486;11.104;2023-05-17T00:38:22;3.87;;;1.30;;
22665;SDS011;11499;49.486;11.104;2023-05-17T00:40:48;4.17;;;1.50;;
22665;SDS011;11499;49.486;11.104;2023-05-17T00:43:14;6.73;;;1.70;;
22665;SDS011;11499;49.486;11.104;2023-05-17T00:48:21;2.13;;;1.40;;
22665;SDS011;11499;49.486;11.104;2023-05-17T00:50:49;3.10;;;1.40;;
22665;SDS011;11499;49.486;11.104;2023-05-17T00:53:16;6.03;;;2.13;;
22665;SDS011;11499;49.486;11.104;2023-05-17T00:55:42;3.03;;;1.77;;
22665;SDS011;11499;49.486;11.104;2023-05-17T00:58:08;7.80;;;2.00;;
22665;SDS011;11499;49.486;11.104;2023-05-17T01:00:37;3.80;;;1.80;;
22665;SDS011;11499;49.486;11.104;2023-05-17T01:03:03;3.93;;;1.43;;
22665;SDS011;11499;49.486;11.104;2023-05-17T01:05:29;3.33;;;1.67;;
22665;SDS011;11499;49.486;11.104;2023-05-17T01:07:54;3.97;;;1.47;;
22665;SDS011;11499;49.486;11.104;2023-05-17T01:10:21;3.03;;;1.50;;
22665;SDS011;11499;49.486;11.104;2023-05-17T01:15:35;3.53;;;1.70;;
22665;SDS011;11499;49.486;11.104;2023-05-17T01:20:47;3.20;;;1.63;;
22665;SDS011;11499;49.486;11.104;2023-05-17T01:28:20;2.83;;;1.53;;
22665;SDS011;11499;49.486;11.104;2023-05-17T01:30:49;5.23;;;1.60;;
22665;SDS011;11499;49.486;11.104;2023-05-17T01:33:16;2.73;;;1.43;;
22665;SDS011;11499;49.486;11.104;2023-05-17T01:35:43;2.57;;;1.40;;
22665;SDS011;11499;49.486;11.104;2023-05-17T01:38:09;3.83;;;1.40;;
22665;SDS011;11499;49.486;11.104;2023-05-17T01:40:35;3.53;;;1.57;;
22665;SDS011;11499;49.486;11.104;2023-05-17T01:43:09;4.40;;;1.40;;
22665;SDS011;11499;49.486;11.104;2023-05-17T01:50:59;2.63;;;1.47;;
22665;SDS011;11499;49.486;11.104;2023-05-17T01:53:29;3.27;;;1.67;;
22665;SDS011;11499;49.486;11.104;2023-05-17T01:56:13;5.20;;;1.70;;
22665;SDS011;11499;49.486;11.104;2023-05-17T01:58:47;5.90;;;1.70;;
22665;SDS011;11499;49.486;11.104;2023-05-17T02:01:16;4.27;;;1.50;;
22665;SDS011;11499;49.486;11.104;2023-05-17T02:03:43;4.57;;;1.70;;
22665;SDS011;11499;49.486;11.104;2023-05-17T02:06:11;4.50;;;1.60;;
22665;SDS011;11499;49.486;11.104;2023-05-17T02:08:37;3.27;;;1.93;;
22665;SDS011;11499;49.486;11.104;2023-05-17T02:11:02;5.17;;;1.70;;
22665;SDS011;11499;49.486;11.104;2023-05-17T02:15:47;4.80;;;1.50;;
22665;SDS011;11499;49.486;11.104;2023-05-17T02:18:13;1.93;;;1.40;;
22665;SDS011;11499;49.486;11.104;2023-05-17T02:20:38;2.90;;;1.30;;
22665;SDS011;11499;49.486;11.104;2023-05-17T02:23:04;5.03;;;1.53;;
22665;SDS011;11499;49.486;11.104;2023-05-17T02:25:29;2.93;;;1.90;;
22665;SDS011;11499;49.486;11.104;2023-05-17T02:27:55;3.20;;;1.50;;
22665;SDS011;11499;49.486;11.104;2023-05-17T02:30:20;2.17;;;1.50;;
22665;SDS011;11499;49.486;11.104;2023-05-17T02:32:47;2.10;;;1.30;;
22665;SDS011;11499;49.486;11.104;2023-05-17T02:35:12;5.03;;;1.60;;
22665;SDS011;11499;49.486;11.104;2023-05-17T02:37:38;2.00;;;1.33;;
22665;SDS011;11499;49.486;11.104;2023-05-17T02:43:10;7.27;;;1.80;;
22665;SDS011;11499;49.486;11.104;2023-05-17T02:45:35;3.73;;;1.43;;
22665;SDS011;11499;49.486;11.104;2023-05-17T02:48:01;4.60;;;1.67;;
22665;SDS011;11499;49.486;11.104;2023-05-17T02:50:26;1.50;;;1.30;;
22665;SDS011;11499;49.486;11.104;2023-05-17T02:52:52;3.37;;;1.60;;
22665;SDS011;11499;49.486;11.104;2023-05-17T02:55:17;3.10;;;1.60;;
22665;SDS011;11499;49.486;11.104;2023-05-17T02:57:43;4.03;;;2.13;;
22665;SDS011;11499;49.486;11.104;2023-05-17T03:00:08;2.43;;;1.40;;
22665;SDS011;11499;49.486;11.104;2023-05-17T03:02:34;3.40;;;1.63;;
22665;SDS011;11499;49.486;11.104;2023-05-17T03:05:00;2.70;;;1.37;;
22665;SDS011;11499;49.486;11.104;2023-05-17T03:10:08;4.03;;;1.50;;
22665;SDS011;11499;49.486;11.104;2023-05-17T03:12:33;4.27;;;1.70;;
22665;SDS011;11499;49.486;11.104;2023-05-17T03:14:59;3.37;;;1.50;;
22665;SDS011;11499;49.486;11.104;2023-05-17T03:17:24;3.30;;;1.47;;
22665;SDS011;11499;49.486;11.104;2023-05-17T03:19:50;2.43;;;1.40;;
22665;SDS011;11499;49.486;11.104;2023-05-17T03:22:15;5.53;;;1.60;;
22665;SDS011;11499;49.486;11.104;2023-05-17T03:24:41;2.53;;;1.67;;
22665;SDS011;11499;49.486;11.104;2023-05-17T03:27:06;2.73;;;1.40;;
22665;SDS011;11499;49.486;11.104;2023-05-17T03:29:32;2.73;;;1.60;;
22665;SDS011;11499;49.486;11.104;2023-05-17T03:31:57;9.33;;;1.90;;
22665;SDS011;11499;49.486;11.104;2023-05-17T03:37:38;4.33;;;1.50;;
22665;SDS011;11499;49.486;11.104;2023-05-17T03:40:03;2.80;;;1.67;;
22665;SDS011;11499;49.486;11.104;2023-05-17T03:42:29;3.57;;;1.50;;
22665;SDS011;11499;49.486;11.104;2023-05-17T03:44:55;3.43;;;1.70;;
22665;SDS011;11499;49.486;11.104;2023-05-17T03:47:21;3.27;;;1.40;;
22665;SDS011;11499;49.486;11.104;2023-05-17T03:49:47;3.60;;;1.77;;
22665;SDS011;11499;49.486;11.104;2023-05-17T03:52:13;3.50;;;1.80;;
22665;SDS011;11499;49.486;11.104;2023-05-17T03:54:39;3.27;;;1.60;;
22665;SDS011;11499;49.486;11.104;2023-05-17T03:57:04;3.63;;;1.80;;
22665;SDS011;11499;49.486;11.104;2023-05-17T03:59:30;3.57;;;1.73;;
22665;SDS011;11499;49.486;11.104;2023-05-17T04:04:36;3.43;;;1.70;;
22665;SDS011;11499;49.486;11.104;2023-05-17T04:07:01;3.40;;;1.47;;
22665;SDS011;11499;49.486;11.104;2023-05-17T04:09:27;2.67;;;1.30;;
22665;SDS011;11499;49.486;11.104;2023-05-17T04:11:55;4.03;;;1.63;;
22665;SDS011;11499;49.486;11.104;2023-05-17T04:14:20;2.83;;;1.33;;
22665;SDS011;11499;49.486;11.104;2023-05-17T04:16:46;3.50;;;1.57;;
22665;SDS011;11499;49.486;11.104;2023-05-17T04:19:11;3.47;;;1.70;;
22665;SDS011;11499;49.486;11.104;2023-05-17T04:21:37;3.73;;;1.70;;
22665;SDS011;11499;49.486;11.104;2023-05-17T04:24:02;2.33;;;1.33;;
22665;SDS011;11499;49.486;11.104;2023-05-17T04:26:28;4.83;;;1.80;;
22665;SDS011;11499;49.486;11.104;2023-05-17T04:28:54;4.57;;;1.87;;
22665;SDS011;11499;49.486;11.104;2023-05-17T04:31:20;5.27;;;1.77;;
22665;SDS011;11499;49.486;11.104;2023-05-17T04:36:03;2.03;;;1.40;;
22665;SDS011;11499;49.486;11.104;2023-05-17T04:38:29;2.40;;;1.40;;
22665;SDS011;11499;49.486;11.104;2023-05-17T04:41:04;3.53;;;1.70;;
22665;SDS011;11499;49.486;11.104;2023-05-17T04:43:31;2.50;;;1.43;;
22665;SDS011;11499;49.486;11.104;2023-05-17T04:45:57;2.50;;;1.43;;
22665;SDS011;11499;49.486;11.104;2023-05-17T04:48:23;4.50;;;1.80;;
22665;SDS011;11499;49.486;11.104;2023-05-17T04:50:50;3.10;;;1.47;;
22665;SDS011;11499;49.486;11.104;2023-05-17T04:53:15;2.37;;;1.43;;
22665;SDS011;11499;49.486;11.104;2023-05-17T04:55:41;1.50;;;1.30;;
22665;SDS011;11499;49.486;11.104;2023-05-17T04:58:07;4.57;;;1.80;;
22665;SDS011;11499;49.486;11.104;2023-05-17T05:03:07;3.20;;;1.50;;
22665;SDS011;11499;49.486;11.104;2023-05-17T05:05:32;3.53;;;1.40;;
22665;SDS011;11499;49.486;11.104;2023-05-17T05:07:59;4.87;;;1.60;;
22665;SDS011;11499;49.486;11.104;2023-05-17T05:10:25;2.43;;;1.57;;
22665;SDS011;11499;49.486;11.104;2023-05-17T05:12:52;4.67;;;2.03;;
22665;SDS011;11499;49.486;11.104;2023-05-17T05:15:18;3.83;;;1.40;;
22665;SDS011;11499;49.486;11.104;2023-05-17T05:17:43;3.73;;;1.57;;
22665;SDS011;11499;49.486;11.104;2023-05-17T05:20:09;4.33;;;1.40;;
22665;SDS011;11499;49.486;11.104;2023-05-17T05:22:35;4.07;;;1.60;;
22665;SDS011;11499;49.486;11.104;2023-05-17T05:25:00;3.30;;;1.40;;
22665;SDS011;11499;49.486;11.104;2023-05-17T05:30:14;5.33;;;1.90;;
22665;SDS011;11499;49.486;11.104;2023-05-17T05:32:46;3.57;;;1.40;;
22665;SDS011;11499;49.486;11.104;2023-05-17T05:35:12;4.00;;;1.53;;
22665;SDS011;11499;49.486;11.104;2023-05-17T05:37:38;3.40;;;1.40;;
22665;SDS011;11499;49.486;11.104;2023-05-17T05:40:03;4.07;;;1.80;;
22665;SDS011;11499;49.486;11.104;2023-05-17T05:42:29;4.83;;;1.93;;
22665;SDS011;11499;49.486;11.104;2023-05-17T05:44:55;4.97;;;1.30;;
22665;SDS011;11499;49.486;11.104;2023-05-17T05:47:20;2.67;;;1.57;;
22665;SDS011;11499;49.486;11.104;2023-05-17T05:49:46;4.37;;;1.60;;
22665;SDS011;11499;49.486;11.104;2023-05-17T05:52:11;3.70;;;1.60;;
22665;SDS011;11499;49.486;11.104;2023-05-17T05:57:15;2.70;;;1.73;;
22665;SDS011;11499;49.486;11.104;2023-05-17T05:59:41;3.47;;;1.63;;
22665;SDS011;11499;49.486;11.104;2023-05-17T06:02:06;3.33;;;1.90;;
22665;SDS011;11499;49.486;11.104;2023-05-17T06:04:32;5.20;;;1.83;;
22665;SDS011;11499;49.486;11.104;2023-05-17T06:06:58;3.63;;;1.70;;
22665;SDS011;11499;49.486;11.104;2023-05-17T06:09:23;4.23;;;1.93;;
22665;SDS011;11499;49.486;11.104;2023-05-17T06:11:50;2.33;;;1.70;;
22665;SDS011;11499;49.486;11.104;2023-05-17T06:14:16;3.73;;;2.07;;
22665;SDS011;11499;49.486;11.104;2023-05-17T06:16:42;4.50;;;1.70;;
22665;SDS011;11499;49.486;11.104;2023-05-17T06:19:07;3.33;;;1.80;;
22665;SDS011;11499;49.486;11.104;2023-05-17T06:24:31;3.33;;;1.80;;
22665;SDS011;11499;49.486;11.104;2023-05-17T06:26:56;4.03;;;1.80;;
22665;SDS011;11499;49.486;11.104;2023-05-17T06:29:22;4.50;;;2.07;;
22665;SDS011;11499;49.486;11.104;2023-05-17T06:31:48;2.77;;;1.83;;
22665;SDS011;11499;49.486;11.104;2023-05-17T06:34:13;7.00;;;2.30;;
22665;SDS011;11499;49.486;11.104;2023-05-17T06:36:39;4.83;;;2.10;;
22665;SDS011;11499;49.486;11.104;2023-05-17T06:39:04;5.97;;;2.40;;
22665;SDS011;11499;49.486;11.104;2023-05-17T06:41:30;4.57;;;2.17;;
22665;SDS011;11499;49.486;11.104;2023-05-17T06:43:55;5.47;;;2.70;;
22665;SDS011;11499;49.486;11.104;2023-05-17T06:47:43;3.50;;;2.33;;
22665;SDS011;11499;49.486;11.104;2023-05-17T06:50:09;5.33;;;2.67;;
22665;SDS011;11499;49.486;11.104;2023-05-17T06:52:35;3.93;;;2.50;;
22665;SDS011;11499;49.486;11.104;2023-05-17T06:55:00;5.33;;;2.70;;
22665;SDS011;11499;49.486;11.104;2023-05-17T06:57:26;5.23;;;2.53;;
22665;SDS011;11499;49.486;11.104;2023-05-17T06:59:51;5.73;;;2.50;;
22665;SDS011;11499;49.486;11.104;2023-05-17T07:02:17;4.97;;;2.20;;
22665;SDS011;11499;49.486;11.104;2023-05-17T07:04:43;4.70;;;2.27;;
22665;SDS011;11499;49.486;11.104;2023-05-17T07:09:48;3.73;;;2.47;;
22665;SDS011;11499;49.486;11.104;2023-05-17T07:12:14;5.23;;;2.70;;
22665;SDS011;11499;49.486;11.104;2023-05-17T07:14:39;3.57;;;2.27;;
22665;SDS011;11499;49.486;11.104;2023-05-17T07:17:05;5.57;;;2.60;;
22665;SDS011;11499;49.486;11.104;2023-05-17T07:19:30;5.00;;;2.50;;
22665;SDS011;11499;49.486;11.104;2023-05-17T07:21:56;5.57;;;2.53;;
22665;SDS011;11499;49.486;11.104;2023-05-17T07:24:21;6.43;;;2.57;;
22665;SDS011;11499;49.486;11.104;2023-05-17T07:26:47;5.13;;;2.10;;
22665;SDS011;11499;49.486;11.104;2023-05-17T07:29:12;3.53;;;2.13;;
22665;SDS011;11499;49.486;11.104;2023-05-17T07:31:38;6.43;;;2.70;;
22665;SDS011;11499;49.486;11.104;2023-05-17T07:34:03;4.73;;;2.50;;
22665;SDS011;11499;49.486;11.104;2023-05-17T07:36:29;5.27;;;2.40;;
22665;SDS011;11499;49.486;11.104;2023-05-17T07:41:35;6.27;;;2.63;;
22665;SDS011;11499;49.486;11.104;2023-05-17T07:44:00;5.37;;;2.87;;
22665;SDS011;11499;49.486;11.104;2023-05-17T07:46:26;3.43;;;2.20;;
22665;SDS011;11499;49.486;11.104;2023-05-17T07:48:51;5.93;;;2.87;;
22665;SDS011;11499;49.486;11.104;2023-05-17T07:51:17;6.20;;;2.90;;
22665;SDS011;11499;49.486;11.104;2023-05-17T07:53:42;6.00;;;2.77;;
22665;SDS011;11499;49.486;11.104;2023-05-17T07:56:09;5.80;;;2.53;;
22665;SDS011;11499;49.486;11.104;2023-05-17T07:58:34;4.27;;;2.60;;
22665;SDS011;11499;49.486;11.104;2023-05-17T08:01:00;4.67;;;2.47;;
22665;SDS011;11499;49.486;11.104;2023-05-17T08:03:26;5.83;;;3.27;;
22665;SDS011;11499;49.486;11.104;2023-05-17T08:07:16;4.67;;;2.80;;
22665;SDS011;11499;49.486;11.104;2023-05-17T08:09:42;6.07;;;3.03;;
22665;SDS011;11499;49.486;11.104;2023-05-17T08:12:09;5.73;;;2.60;;
22665;SDS011;11499;49.486;11.104;2023-05-17T08:14:35;4.80;;;2.93;;
22665;SDS011;11499;49.486;11.104;2023-05-17T08:17:00;8.07;;;3.17;;
22665;SDS011;11499;49.486;11.104;2023-05-17T08:19:26;6.17;;;3.20;;
22665;SDS011;11499;49.486;11.104;2023-05-17T08:21:52;6.30;;;2.87;;
22665;SDS011;11499;49.486;11.104;2023-05-17T08:24:17;4.53;;;3.10;;
22665;SDS011;11499;49.486;11.104;2023-05-17T08:26:43;5.60;;;3.53;;
22665;SDS011;11499;49.486;11.104;2023-05-17T08:29:08;5.97;;;2.77;;
22665;SDS011;11499;49.486;11.104;2023-05-17T08:34:19;5.03;;;3.30;;
22665;SDS011;11499;49.486;11.104;2023-05-17T08:36:46;3.90;;;3.10;;
22665;SDS011;11499;49.486;11.104;2023-05-17T08:39:11;7.00;;;3.63;;
22665;SDS011;11499;49.486;11.104;2023-05-17T08:41:37;5.03;;;3.20;;
22665;SDS011;11499;49.486;11.104;2023-05-17T08:44:03;5.37;;;3.00;;
22665;SDS011;11499;49.486;11.104;2023-05-17T08:46:31;6.37;;;3.27;;
22665;SDS011;11499;49.486;11.104;2023-05-17T08:48:58;5.00;;;3.10;;
22665;SDS011;11499;49.486;11.104;2023-05-17T08:51:25;4.40;;;3.00;;
22665;SDS011;11499;49.486;11.104;2023-05-17T08:53:53;5.33;;;2.93;;
22665;SDS011;11499;49.486;11.104;2023-05-17T08:56:19;5.67;;;2.93;;
22665;SDS011;11499;49.486;11.104;2023-05-17T09:00:41;7.83;;;3.30;;
22665;SDS011;11499;49.486;11.104;2023-05-17T09:03:08;5.50;;;3.33;;
22665;SDS011;11499;49.486;11.104;2023-05-17T09:05:37;7.23;;;3.60;;
22665;SDS011;11499;49.486;11.104;2023-05-17T09:08:03;5.67;;;3.10;;
22665;SDS011;11499;49.486;11.104;2023-05-17T09:10:29;5.73;;;3.07;;
22665;SDS011;11499;49.486;11.104;2023-05-17T09:12:55;7.47;;;3.37;;
22665;SDS011;11499;49.486;11.104;2023-05-17T09:15:21;5.60;;;3.17;;
22665;SDS011;11499;49.486;11.104;2023-05-17T09:17:51;5.30;;;3.20;;
22665;SDS011;11499;49.486;11.104;2023-05-17T09:20:21;6.73;;;3.10;;
22665;SDS011;11499;49.486;11.104;2023-05-17T09:22:48;4.10;;;2.83;;
22665;SDS011;11499;49.486;11.104;2023-05-17T09:25:18;6.93;;;3.37;;
22665;SDS011;11499;49.486;11.104;2023-05-17T09:27:44;6.93;;;3.10;;
22665;SDS011;11499;49.486;11.104;2023-05-17T09:31:46;7.17;;;2.80;;
22665;SDS011;11499;49.486;11.104;2023-05-17T09:34:12;5.77;;;2.80;;
22665;SDS011;11499;49.486;11.104;2023-05-17T09:36:42;6.03;;;2.90;;
22665;SDS011;11499;49.486;11.104;2023-05-17T09:39:08;6.20;;;3.00;;
22665;SDS011;11499;49.486;11.104;2023-05-17T09:41:40;4.47;;;2.57;;
22665;SDS011;11499;49.486;11.104;2023-05-17T09:44:10;4.47;;;2.90;;
22665;SDS011;11499;49.486;11.104;2023-05-17T09:46:38;5.40;;;2.80;;
22665;SDS011;11499;49.486;11.104;2023-05-17T09:49:06;3.80;;;2.97;;
22665;SDS011;11499;49.486;11.104;2023-05-17T09:51:33;7.47;;;2.90;;
22665;SDS011;11499;49.486;11.104;2023-05-17T09:54:00;4.93;;;3.27;;
22665;SDS011;11499;49.486;11.104;2023-05-17T09:59:12;6.17;;;3.10;;
22665;SDS011;11499;49.486;11.104;2023-05-17T10:01:39;4.83;;;2.70;;
22665;SDS011;11499;49.486;11.104;2023-05-17T10:04:09;4.63;;;3.00;;
22665;SDS011;11499;49.486;11.104;2023-05-17T10:06:37;6.83;;;2.47;;
22665;SDS011;11499;49.486;11.104;2023-05-17T10:09:05;5.07;;;2.60;;
22665;SDS011;11499;49.486;11.104;2023-05-17T10:11:34;5.23;;;2.70;;
22665;SDS011;11499;49.486;11.104;2023-05-17T10:16:46;6.10;;;2.90;;
22665;SDS011;11499;49.486;11.104;2023-05-17T10:19:13;5.97;;;2.40;;
22665;SDS011;11499;49.486;11.104;2023-05-17T10:21:40;5.77;;;2.93;;
22665;SDS011;11499;49.486;11.104;2023-05-17T10:24:07;5.30;;;2.50;;
22665;SDS011;11499;49.486;11.104;2023-05-17T10:29:16;4.83;;;2.90;;
22665;SDS011;11499;49.486;11.104;2023-05-17T10:31:44;4.90;;;3.00;;
22665;SDS011;11499;49.486;11.104;2023-05-17T10:34:11;4.53;;;2.97;;
22665;SDS011;11499;49.486;11.104;2023-05-17T10:36:40;5.13;;;2.97;;
22665;SDS011;11499;49.486;11.104;2023-05-17T10:39:08;5.63;;;2.80;;
22665;SDS011;11499;49.486;11.104;2023-05-17T10:41:34;5.63;;;2.83;;
22665;SDS011;11499;49.486;11.104;2023-05-17T10:44:04;6.27;;;3.20;;
22665;SDS011;11499;49.486;11.104;2023-05-17T10:46:32;5.40;;;2.70;;
22665;SDS011;11499;49.486;11.104;2023-05-17T10:51:51;4.97;;;3.00;;
22665;SDS011;11499;49.486;11.104;2023-05-17T10:54:17;5.23;;;2.73;;
22665;SDS011;11499;49.486;11.104;2023-05-17T10:56:46;4.87;;;3.10;;
22665;SDS011;11499;49.486;11.104;2023-05-17T11:04:30;6.30;;;2.93;;
22665;SDS011;11499;49.486;11.104;2023-05-17T11:10:09;4.87;;;3.60;;
22665;SDS011;11499;49.486;11.104;2023-05-17T11:12:42;5.67;;;3.00;;
22665;SDS011;11499;49.486;11.104;2023-05-17T11:15:12;4.20;;;2.87;;
22665;SDS011;11499;49.486;11.104;2023-05-17T11:19:10;5.23;;;2.63;;
22665;SDS011;11499;49.486;11.104;2023-05-17T11:21:45;6.43;;;2.80;;
22665;SDS011;11499;49.486;11.104;2023-05-17T11:24:12;5.20;;;2.80;;
22665;SDS011;11499;49.486;11.104;2023-05-17T11:26:43;3.90;;;2.80;;
22665;SDS011;11499;49.486;11.104;2023-05-17T11:29:10;5.07;;;2.70;;
22665;SDS011;11499;49.486;11.104;2023-05-17T11:31:36;6.33;;;2.93;;
22665;SDS011;11499;49.486;11.104;2023-05-17T11:34:08;4.97;;;2.70;;
22665;SDS011;11499;49.486;11.104;2023-05-17T11:36:47;7.70;;;3.30;;
22665;SDS011;11499;49.486;11.104;2023-05-17T11:41:47;4.87;;;2.70;;
22665;SDS011;11499;49.486;11.104;2023-05-17T11:44:48;4.17;;;2.53;;
22665;SDS011;11499;49.486;11.104;2023-05-17T11:47:07;5.30;;;2.50;;
22665;SDS011;11499;49.486;11.104;2023-05-17T11:49:35;4.10;;;2.50;;
22665;SDS011;11499;49.486;11.104;2023-05-17T11:52:03;5.87;;;3.00;;
22665;SDS011;11499;49.486;11.104;2023-05-17T11:54:30;5.23;;;2.80;;
22665;SDS011;11499;49.486;11.104;2023-05-17T11:56:56;4.03;;;2.70;;
22665;SDS011;11499;49.486;11.104;2023-05-17T11:59:23;5.43;;;2.53;;
22665;SDS011;11499;49.486;11.104;2023-05-17T12:01:49;5.47;;;2.97;;
22665;SDS011;11499;49.486;11.104;2023-05-17T12:04:22;4.60;;;2.60;;
22665;SDS011;11499;49.486;11.104;2023-05-17T12:09:37;5.67;;;2.80;;
22665;SDS011;11499;49.486;11.104;2023-05-17T12:12:04;4.47;;;2.50;;
22665;SDS011;11499;49.486;11.104;2023-05-17T12:14:30;6.73;;;2.50;;
22665;SDS011;11499;49.486;11.104;2023-05-17T12:16:55;4.97;;;2.77;;
22665;SDS011;11499;49.486;11.104;2023-05-17T12:19:23;4.27;;;2.67;;
22665;SDS011;11499;49.486;11.104;2023-05-17T12:21:51;6.07;;;2.53;;
22665;SDS011;11499;49.486;11.104;2023-05-17T12:24:16;4.97;;;2.63;;
22665;SDS011;11499;49.486;11.104;2023-05-17T12:26:43;5.30;;;3.23;;
22665;SDS011;11499;49.486;11.104;2023-05-17T12:29:09;4.27;;;2.80;;
22665;SDS011;11499;49.486;11.104;2023-05-17T12:31:37;5.90;;;2.97;;
22665;SDS011;11499;49.486;11.104;2023-05-17T12:34:05;6.83;;;2.67;;
22665;SDS011;11499;49.486;11.104;2023-05-17T12:36:31;5.40;;;2.80;;
22665;SDS011;11499;49.486;11.104;2023-05-17T12:41:38;5.07;;;3.30;;
22665;SDS011;11499;49.486;11.104;2023-05-17T12:44:06;4.40;;;2.90;;
22665;SDS011;11499;49.486;11.104;2023-05-17T12:46:32;5.47;;;3.13;;
22665;SDS011;11499;49.486;11.104;2023-05-17T12:49:05;5.47;;;2.87;;
22665;SDS011;11499;49.486;11.104;2023-05-17T12:51:38;5.17;;;2.93;;
22665;SDS011;11499;49.486;11.104;2023-05-17T12:54:08;7.90;;;2.90;;
22665;SDS011;11499;49.486;11.104;2023-05-17T12:56:42;5.30;;;3.20;;
22665;SDS011;11499;49.486;11.104;2023-05-17T13:04:16;5.70;;;2.90;;
22665;SDS011;11499;49.486;11.104;2023-05-17T13:06:54;4.37;;;2.73;;
22665;SDS011;11499;49.486;11.104;2023-05-17T13:09:22;5.70;;;3.10;;
22665;SDS011;11499;49.486;11.104;2023-05-17T13:11:50;3.97;;;2.83;;
22665;SDS011;11499;49.486;11.104;2023-05-17T13:14:32;5.20;;;2.93;;
22665;SDS011;11499;49.486;11.104;2023-05-17T13:16:57;5.93;;;3.00;;
22665;SDS011;11499;49.486;11.104;2023-05-17T13:19:23;3.90;;;2.70;;
22665;SDS011;11499;49.486;11.104;2023-05-17T13:21:48;5.87;;;3.07;;
22665;SDS011;11499;49.486;11.104;2023-05-17T13:27:02;4.60;;;3.17;;
22665;SDS011;11499;49.486;11.104;2023-05-17T13:29:28;5.73;;;3.03;;
22665;SDS011;11499;49.486;11.104;2023-05-17T13:31:54;4.80;;;3.03;;
22665;SDS011;11499;49.486;11.104;2023-05-17T13:34:20;4.70;;;3.00;;
22665;SDS011;11499;49.486;11.104;2023-05-17T13:36:46;4.87;;;3.23;;
22665;SDS011;11499;49.486;11.104;2023-05-17T13:39:12;6.70;;;3.03;;
22665;SDS011;11499;49.486;11.104;2023-05-17T13:41:38;5.27;;;3.20;;
22665;SDS011;11499;49.486;11.104;2023-05-17T13:44:04;6.13;;;3.20;;
22665;SDS011;11499;49.486;11.104;2023-05-17T13:46:30;4.40;;;3.23;;
22665;SDS011;11499;49.486;11.104;2023-05-17T13:48:56;6.80;;;2.80;;
22665;SDS011;11499;49.486;11.104;2023-05-17T13:51:22;7.80;;;3.70;;
22665;SDS011;11499;49.486;11.104;2023-05-17T13:53:49;4.60;;;3.27;;
22665;SDS011;11499;49.486;11.104;2023-05-17T13:58:44;5.30;;;2.70;;
22665;SDS011;11499;49.486;11.104;2023-05-17T14:01:10;3.43;;;2.80;;
22665;SDS011;11499;49.486;11.104;2023-05-17T14:03:35;4.93;;;3.07;;
22665;SDS011;11499;49.486;11.104;2023-05-17T14:06:02;4.10;;;2.70;;
22665;SDS011;11499;49.486;11.104;2023-05-17T14:08:28;5.63;;;2.80;;
22665;SDS011;11499;49.486;11.104;2023-05-17T14:10:54;6.17;;;2.70;;
22665;SDS011;11499;49.486;11.104;2023-05-17T14:13:20;4.33;;;2.70;;
22665;SDS011;11499;49.486;11.104;2023-05-17T14:15:45;4.53;;;2.40;;
22665;SDS011;11499;49.486;11.104;2023-05-17T14:18:11;5.07;;;2.73;;
22665;SDS011;11499;49.486;11.104;2023-05-17T14:20:37;4.17;;;3.20;;
22665;SDS011;11499;49.486;11.104;2023-05-17T14:25:36;5.13;;;3.03;;
22665;SDS011;11499;49.486;11.104;2023-05-17T14:28:02;4.33;;;2.80;;
22665;SDS011;11499;49.486;11.104;2023-05-17T14:30:28;5.03;;;3.10;;
22665;SDS011;11499;49.486;11.104;2023-05-17T14:32:54;4.37;;;2.90;;
22665;SDS011;11499;49.486;11.104;2023-05-17T14:35:19;3.23;;;2.60;;
22665;SDS011;11499;49.486;11.104;2023-05-17T14:37:45;5.03;;;3.03;;
22665;SDS011;11499;49.486;11.104;2023-05-17T14:40:10;5.47;;;3.23;;
22665;SDS011;11499;49.486;11.104;2023-05-17T14:42:36;3.90;;;2.50;;
22665;SDS011;11499;49.486;11.104;2023-05-17T14:45:02;4.13;;;2.70;;
22665;SDS011;11499;49.486;11.104;2023-05-17T14:47:30;5.43;;;3.07;;
22665;SDS011;11499;49.486;11.104;2023-05-17T14:53:19;4.50;;;2.60;;
22665;SDS011;11499;49.486;11.104;2023-05-17T14:55:45;5.27;;;2.77;;
22665;SDS011;11499;49.486;11.104;2023-05-17T14:58:11;5.30;;;2.93;;
22665;SDS011;11499;49.486;11.104;2023-05-17T15:00:37;5.97;;;2.73;;
22665;SDS011;11499;49.486;11.104;2023-05-17T15:03:03;4.10;;;2.83;;
22665;SDS011;11499;49.486;11.104;2023-05-17T15:05:28;5.03;;;2.60;;
22665;SDS011;11499;49.486;11.104;2023-05-17T15:07:54;4.57;;;2.47;;
22665;SDS011;11499;49.486;11.104;2023-05-17T15:10:19;3.87;;;2.60;;
22665;SDS011;11499;49.486;11.104;2023-05-17T15:15:43;4.43;;;2.53;;
22665;SDS011;11499;49.486;11.104;2023-05-17T15:18:09;5.67;;;2.37;;
22665;SDS011;11499;49.486;11.104;2023-05-17T15:20:38;4.07;;;2.20;;
22665;SDS011;11499;49.486;11.104;2023-05-17T15:23:04;4.03;;;2.43;;
22665;SDS011;11499;49.486;11.104;2023-05-17T15:25:30;3.37;;;2.40;;
22665;SDS011;11499;49.486;11.104;2023-05-17T15:27:55;4.73;;;2.57;;
22665;SDS011;11499;49.486;11.104;2023-05-17T15:30:21;3.67;;;2.47;;
22665;SDS011;11499;49.486;11.104;2023-05-17T15:32:52;6.93;;;2.80;;
22665;SDS011;11499;49.486;11.104;2023-05-17T15:35:18;5.27;;;2.60;;
22665;SDS011;11499;49.486;11.104;2023-05-17T15:37:43;4.50;;;2.20;;
22665;SDS011;11499;49.486;11.104;2023-05-17T15:42:58;6.33;;;2.50;;
22665;SDS011;11499;49.486;11.104;2023-05-17T15:45:24;4.73;;;2.60;;
22665;SDS011;11499;49.486;11.104;2023-05-17T15:47:49;3.83;;;2.40;;
22665;SDS011;11499;49.486;11.104;2023-05-17T15:50:15;4.33;;;2.50;;
22665;SDS011;11499;49.486;11.104;2023-05-17T15:52:41;4.13;;;2.17;;
22665;SDS011;11499;49.486;11.104;2023-05-17T15:55:06;4.93;;;2.60;;
22665;SDS011;11499;49.486;11.104;2023-05-17T15:57:33;3.40;;;2.30;;
22665;SDS011;11499;49.486;11.104;2023-05-17T15:59:59;5.23;;;2.43;;
22665;SDS011;11499;49.486;11.104;2023-05-17T16:02:24;4.50;;;2.53;;
22665;SDS011;11499;49.486;11.104;2023-05-17T16:04:50;4.83;;;2.83;;
22665;SDS011;11499;49.486;11.104;2023-05-17T16:09:46;4.87;;;2.73;;
22665;SDS011;11499;49.486;11.104;2023-05-17T16:12:12;5.13;;;2.53;;
22665;SDS011;11499;49.486;11.104;2023-05-17T16:14:37;5.67;;;3.03;;
22665;SDS011;11499;49.486;11.104;2023-05-17T16:17:04;4.50;;;2.83;;
22665;SDS011;11499;49.486;11.104;2023-05-17T16:19:30;3.90;;;2.43;;
22665;SDS011;11499;49.486;11.104;2023-05-17T16:21:57;4.00;;;2.40;;
22665;SDS011;11499;49.486;11.104;2023-05-17T16:24:23;4.10;;;2.60;;
22665;SDS011;11499;49.486;11.104;2023-05-17T16:26:49;3.63;;;2.60;;